Time;durP1;ratioP1;P1;durP2;ratioP2;P2;SDS_P1;SDS_P2;PMS_P1;PMS_P2;Temp;Humidity;BMP_temperature;BMP_pressure;BME280_temperature;BME280_humidity;BME280_pressure;Samples;Min_cycle;Max_cycle;Signal;HPM_P1;HPM_P2
2023/02/22 00:00:18;;;;;;;12.98;5.13;;;;;;;;;;1037611;28;20521;-15
2023/02/22 00:00:48;;;;;;;8.52;5.68;;;;;;;;;;1037390;28;20030;-14
2023/02/22 00:01:34;;;;;;;10.73;5.82;;;;;;;;;;1037763;28;20030;-14
2023/02/22 00:02:12;;;;;;;15.10;4.80;;;;;;;;;;1037413;28;20149;-14
2023/02/22 00:02:43;;;;;;;8.90;4.07;;;;;;;;;;1037604;28;20529;-15
2023/02/22 00:03:15;;;;;;;13.95;5.97;;;;;;;;;;1037667;28;20022;-15
2023/02/22 00:03:50;;;;;;;9.90;4.80;;;;;;;;;;1037527;28;20026;-16
2023/02/22 00:04:21;;;;;;;11.15;4.07;;;;;;;;;;1037544;28;20385;-15
2023/02/22 00:04:52;;;;;;;6.78;4.10;;;;;;;;;;1037729;28;20064;-14
2023/02/22 00:05:23;;;;;;;5.63;4.35;;;;;;;;;;1037528;28;20033;-18
2023/02/22 00:05:57;;;;;;;8.63;4.35;;;;;;;;;;1036660;28;20033;-16
2023/02/22 00:06:29;;;;;;;12.55;4.57;;;;;;;;;;1038206;28;20033;-16
2023/02/22 00:07:00;;;;;;;10.50;4.30;;;;;;;;;;1037221;28;20030;-15
2023/02/22 00:07:31;;;;;;;9.13;4.30;;;;;;;;;;1037409;28;20049;-14
2023/02/22 00:08:01;;;;;;;7.82;3.50;;;;;;;;;;1037727;28;20030;-15
2023/02/22 00:08:33;;;;;;;13.45;5.57;;;;;;;;;;1037610;28;20026;-15
2023/02/22 00:09:03;;;;;;;10.57;5.13;;;;;;;;;;1037434;28;20026;-15
2023/02/22 00:09:34;;;;;;;11.50;7.15;;;;;;;;;;1037404;28;20030;-16
2023/02/22 00:10:07;;;;;;;22.25;6.07;;;;;;;;;;1037746;28;20064;-14
2023/02/22 00:10:38;;;;;;;7.10;3.45;;;;;;;;;;1037535;28;20033;-14
2023/02/22 00:11:08;;;;;;;12.73;6.03;;;;;;;;;;1036872;28;20057;-15
2023/02/22 00:11:45;;;;;;;13.30;6.45;;;;;;;;;;1036404;28;20116;-14
2023/02/22 00:12:15;;;;;;;7.88;4.90;;;;;;;;;;1037364;28;20104;-18
2023/02/22 00:12:51;;;;;;;4.50;3.42;;;;;;;;;;1037903;28;20420;-16
2023/02/22 00:13:21;;;;;;;8.63;4.38;;;;;;;;;;1036819;28;20496;-14
2023/02/22 00:13:55;;;;;;;12.65;5.43;;;;;;;;;;1037782;28;20096;-14
2023/02/22 00:14:26;;;;;;;11.57;5.50;;;;;;;;;;1036150;28;20061;-14
2023/02/22 00:14:56;;;;;;;6.95;4.07;;;;;;;;;;1037760;28;20026;-12
2023/02/22 00:15:27;;;;;;;14.52;5.50;;;;;;;;;;1037687;28;20021;-16
2023/02/22 00:15:58;;;;;;;5.70;3.38;;;;;;;;;;1037853;28;20392;-14
2023/02/22 00:16:29;;;;;;;9.80;5.47;;;;;;;;;;1037664;28;20548;-13
2023/02/22 00:17:01;;;;;;;12.18;4.97;;;;;;;;;;1037007;28;20161;-16
2023/02/22 00:17:31;;;;;;;8.80;4.65;;;;;;;;;;1037387;28;20093;-15
2023/02/22 00:18:03;;;;;;;16.50;5.68;;;;;;;;;;1037893;28;20438;-15
2023/02/22 00:18:33;;;;;;;12.30;5.00;;;;;;;;;;1037013;28;20051;-15
2023/02/22 00:19:04;;;;;;;22.80;5.55;;;;;;;;;;1037885;28;20474;-15
2023/02/22 00:19:35;;;;;;;7.60;4.47;;;;;;;;;;1037598;28;20140;-15
2023/02/22 00:20:06;;;;;;;7.90;5.70;;;;;;;;;;1037764;28;20030;-16
2023/02/22 00:20:37;;;;;;;8.40;4.38;;;;;;;;;;1037246;28;20048;-15
2023/02/22 00:21:09;;;;;;;6.35;4.20;;;;;;;;;;1037890;28;20397;-14
2023/02/22 00:21:39;;;;;;;14.65;4.53;;;;;;;;;;1035169;28;20034;-16
2023/02/22 00:22:10;;;;;;;10.80;4.20;;;;;;;;;;1037708;28;20028;-18
2023/02/22 00:22:41;;;;;;;14.38;4.75;;;;;;;;;;1037941;28;20033;-14
2023/02/22 00:23:17;;;;;;;17.75;6.40;;;;;;;;;;1037703;28;20136;-14
2023/02/22 00:23:48;;;;;;;13.07;4.15;;;;;;;;;;1037215;28;20543;-15
2023/02/22 00:24:24;;;;;;;10.77;4.28;;;;;;;;;;1037765;28;20076;-14
2023/02/22 00:24:55;;;;;;;9.52;4.63;;;;;;;;;;1036765;28;20076;-14
2023/02/22 00:25:26;;;;;;;13.15;5.00;;;;;;;;;;1037869;28;20485;-16
2023/02/22 00:25:58;;;;;;;14.35;5.15;;;;;;;;;;1037882;28;20116;-15
2023/02/22 00:26:31;;;;;;;9.20;3.95;;;;;;;;;;1037418;28;20038;-14
2023/02/22 00:27:02;;;;;;;19.48;5.55;;;;;;;;;;1037106;28;20077;-15
2023/02/22 00:27:32;;;;;;;6.20;4.18;;;;;;;;;;1037740;28;20092;-14
2023/02/22 00:28:03;;;;;;;28.05;6.93;;;;;;;;;;1037771;28;20026;-16
2023/02/22 00:28:35;;;;;;;12.18;6.22;;;;;;;;;;1037602;28;20236;-18
2023/02/22 00:29:07;;;;;;;10.15;4.47;;;;;;;;;;1037917;28;20516;-16
2023/02/22 00:29:43;;;;;;;9.13;3.70;;;;;;;;;;1037578;28;20025;-16
2023/02/22 00:30:17;;;;;;;11.90;5.07;;;;;;;;;;1037201;28;20034;-16
2023/02/22 00:30:48;;;;;;;12.38;5.13;;;;;;;;;;1037180;28;20018;-15
2023/02/22 00:31:19;;;;;;;16.63;6.65;;;;;;;;;;1037920;28;20393;-16
2023/02/22 00:31:49;;;;;;;9.93;5.50;;;;;;;;;;1037645;28;20029;-17
2023/02/22 00:32:20;;;;;;;10.50;6.35;;;;;;;;;;1037547;28;20026;-16
2023/02/22 00:32:51;;;;;;;28.25;6.53;;;;;;;;;;1037685;28;20021;-18
2023/02/22 00:33:21;;;;;;;11.63;5.82;;;;;;;;;;1033338;28;20395;-17
2023/02/22 00:33:52;;;;;;;12.38;6.22;;;;;;;;;;1032913;28;20026;-17
2023/02/22 00:34:23;;;;;;;13.00;7.00;;;;;;;;;;1033226;28;20112;-18
2023/02/22 00:34:53;;;;;;;15.27;6.00;;;;;;;;;;1033255;28;20080;-18
2023/02/22 00:35:25;;;;;;;16.13;4.97;;;;;;;;;;1036591;28;20037;-17
2023/02/22 00:35:55;;;;;;;13.07;5.90;;;;;;;;;;1036731;28;20066;-15
2023/02/22 00:36:26;;;;;;;17.65;5.93;;;;;;;;;;1038707;28;20131;-16
2023/02/22 00:36:56;;;;;;;14.10;5.93;;;;;;;;;;1038081;28;20030;-17
2023/02/22 00:37:30;;;;;;;18.02;6.82;;;;;;;;;;1037623;28;20379;-17
2023/02/22 00:38:01;;;;;;;17.20;6.22;;;;;;;;;;1037861;28;20032;-19
2023/02/22 00:38:31;;;;;;;11.38;5.53;;;;;;;;;;1037741;28;20460;-17
2023/02/22 00:39:02;;;;;;;8.50;3.45;;;;;;;;;;1037946;28;20026;-14
2023/02/22 00:39:32;;;;;;;10.20;3.83;;;;;;;;;;1036986;28;20073;-17
2023/02/22 00:40:07;;;;;;;14.40;3.55;;;;;;;;;;1037874;28;20362;-18
2023/02/22 00:40:39;;;;;;;12.80;5.20;;;;;;;;;;1037659;28;20062;-17
2023/02/22 00:41:10;;;;;;;11.25;3.72;;;;;;;;;;1037802;28;20026;-17
2023/02/22 00:41:41;;;;;;;13.23;2.83;;;;;;;;;;1036481;28;20061;-17
2023/02/22 00:42:11;;;;;;;10.32;4.22;;;;;;;;;;1036336;28;20503;-17
2023/02/22 00:42:42;;;;;;;18.45;4.97;;;;;;;;;;1037094;28;20027;-18
2023/02/22 00:43:13;;;;;;;11.60;5.07;;;;;;;;;;1037057;28;20120;-17
2023/02/22 00:43:43;;;;;;;13.93;5.78;;;;;;;;;;1036718;28;20235;-16
2023/02/22 00:44:14;;;;;;;17.02;4.45;;;;;;;;;;1037635;28;20025;-16
2023/02/22 00:44:44;;;;;;;8.48;4.05;;;;;;;;;;1037647;28;20030;-16
2023/02/22 00:45:16;;;;;;;7.93;3.42;;;;;;;;;;1037769;28;20429;-18
2023/02/22 00:45:48;;;;;;;9.85;5.25;;;;;;;;;;1037338;28;20030;-18
2023/02/22 00:46:18;;;;;;;15.60;4.65;;;;;;;;;;1036848;28;20022;-17
2023/02/22 00:46:48;;;;;;;6.18;2.90;;;;;;;;;;1033425;28;20121;-18
2023/02/22 00:47:19;;;;;;;10.68;4.60;;;;;;;;;;1033347;28;20119;-18
2023/02/22 00:47:50;;;;;;;10.15;4.20;;;;;;;;;;1033020;28;20461;-16
2023/02/22 00:48:20;;;;;;;10.65;4.18;;;;;;;;;;1033313;28;20421;-20
2023/02/22 00:48:50;;;;;;;8.57;4.18;;;;;;;;;;1035713;28;20026;-14
2023/02/22 00:49:21;;;;;;;9.32;4.68;;;;;;;;;;1035971;28;20026;-16
2023/02/22 00:49:51;;;;;;;13.00;4.05;;;;;;;;;;1037293;28;20025;-18
2023/02/22 00:50:23;;;;;;;9.38;3.95;;;;;;;;;;1037366;28;20469;-16
2023/02/22 00:50:56;;;;;;;15.48;6.22;;;;;;;;;;1038115;28;20401;-17
2023/02/22 00:51:27;;;;;;;13.48;5.65;;;;;;;;;;1037018;28;20017;-17
2023/02/22 00:51:58;;;;;;;9.00;3.97;;;;;;;;;;1037495;28;20030;-16
2023/02/22 00:52:29;;;;;;;9.35;4.45;;;;;;;;;;1037532;28;20048;-19
2023/02/22 00:53:00;;;;;;;9.65;4.60;;;;;;;;;;1037669;28;20579;-16
2023/02/22 00:53:31;;;;;;;9.00;4.57;;;;;;;;;;1037214;28;20037;-16
2023/02/22 00:54:01;;;;;;;10.63;4.38;;;;;;;;;;1035551;28;20037;-17
2023/02/22 00:54:32;;;;;;;9.40;3.65;;;;;;;;;;1031000;28;20015;-16
2023/02/22 00:55:04;;;;;;;13.38;5.72;;;;;;;;;;1031495;28;20449;-17
2023/02/22 00:55:36;;;;;;;8.13;4.88;;;;;;;;;;1030948;28;20687;-17
2023/02/22 00:56:06;;;;;;;9.85;4.57;;;;;;;;;;1033765;28;20026;-18
2023/02/22 00:56:37;;;;;;;7.82;4.35;;;;;;;;;;1037420;28;20085;-17
2023/02/22 00:57:07;;;;;;;9.23;4.93;;;;;;;;;;1037439;28;20461;-17
2023/02/22 00:57:39;;;;;;;22.80;4.63;;;;;;;;;;1032888;28;20041;-17
2023/02/22 00:58:09;;;;;;;15.25;4.03;;;;;;;;;;1029149;28;20072;-15
2023/02/22 00:58:39;;;;;;;7.50;5.53;;;;;;;;;;1028205;28;20059;-16
2023/02/22 00:59:10;;;;;;;9.13;4.53;;;;;;;;;;1028604;28;20023;-17
2023/02/22 00:59:40;;;;;;;5.68;2.63;;;;;;;;;;1031978;28;20031;-18
2023/02/22 01:00:16;;;;;;;15.52;3.83;;;;;;;;;;1037634;28;20025;-16
2023/02/22 01:00:48;;;;;;;9.13;4.35;;;;;;;;;;1037924;28;20031;-16
2023/02/22 01:01:19;;;;;;;10.48;5.03;;;;;;;;;;1037291;28;20076;-16
2023/02/22 01:01:49;;;;;;;7.55;3.85;;;;;;;;;;1036959;28;20021;-17
2023/02/22 01:02:20;;;;;;;8.88;3.60;;;;;;;;;;1037537;28;20104;-16
2023/02/22 01:02:50;;;;;;;7.50;5.05;;;;;;;;;;1036959;28;20116;-16
2023/02/22 01:03:21;;;;;;;22.70;5.43;;;;;;;;;;1037763;28;20500;-14
2023/02/22 01:03:52;;;;;;;7.97;4.18;;;;;;;;;;1037332;28;20018;-18
2023/02/22 01:04:22;;;;;;;9.23;5.07;;;;;;;;;;1037582;28;20397;-16
2023/02/22 01:04:53;;;;;;;10.73;4.05;;;;;;;;;;1037623;28;20029;-17
2023/02/22 01:05:25;;;;;;;12.60;5.95;;;;;;;;;;1037567;28;20034;-16
2023/02/22 01:05:55;;;;;;;7.40;3.90;;;;;;;;;;1036362;28;20032;-16
2023/02/22 01:06:26;;;;;;;10.02;4.30;;;;;;;;;;1037224;28;20035;-16
2023/02/22 01:06:59;;;;;;;12.13;5.90;;;;;;;;;;1037775;28;20056;-16
2023/02/22 01:07:29;;;;;;;11.82;4.97;;;;;;;;;;1036420;28;20393;-16
2023/02/22 01:08:00;;;;;;;18.02;5.70;;;;;;;;;;1037481;28;20026;-17
2023/02/22 01:08:31;;;;;;;9.00;5.03;;;;;;;;;;1037360;28;20025;-17
2023/02/22 01:09:02;;;;;;;9.48;3.83;;;;;;;;;;1037737;28;20025;-16
2023/02/22 01:09:33;;;;;;;12.73;5.20;;;;;;;;;;1036610;28;20394;-18
2023/02/22 01:10:05;;;;;;;10.30;4.28;;;;;;;;;;1037205;28;20049;-16
2023/02/22 01:10:36;;;;;;;11.57;4.70;;;;;;;;;;1037407;28;20570;-16
2023/02/22 01:11:06;;;;;;;10.25;3.88;;;;;;;;;;1037586;28;20390;-18
2023/02/22 01:11:37;;;;;;;8.77;5.07;;;;;;;;;;1036963;28;20025;-19
2023/02/22 01:12:07;;;;;;;39.10;5.03;;;;;;;;;;1037502;28;20141;-16
2023/02/22 01:12:38;;;;;;;9.80;4.18;;;;;;;;;;1036942;28;20026;-21
2023/02/22 01:13:10;;;;;;;8.95;4.22;;;;;;;;;;1037653;28;20017;-16
2023/02/22 01:13:44;;;;;;;10.38;3.78;;;;;;;;;;1036229;28;20036;-16
2023/02/22 01:14:14;;;;;;;9.45;3.97;;;;;;;;;;1037461;28;20128;-18
2023/02/22 01:14:44;;;;;;;11.65;3.83;;;;;;;;;;1037478;28;20124;-16
2023/02/22 01:15:15;;;;;;;15.77;5.20;;;;;;;;;;1037333;28;20485;-16
2023/02/22 01:15:46;;;;;;;9.73;4.35;;;;;;;;;;1037520;28;20025;-18
2023/02/22 01:16:16;;;;;;;9.38;4.78;;;;;;;;;;1037331;28;20022;-18
2023/02/22 01:16:47;;;;;;;19.90;5.30;;;;;;;;;;1037684;28;20033;-18
2023/02/22 01:17:18;;;;;;;15.57;6.10;;;;;;;;;;1035358;28;20086;-16
2023/02/22 01:17:50;;;;;;;23.85;7.03;;;;;;;;;;1032965;28;20022;-18
2023/02/22 01:18:20;;;;;;;11.50;5.18;;;;;;;;;;1032701;28;20018;-19
2023/02/22 01:18:51;;;;;;;17.95;6.93;;;;;;;;;;1033158;28;20089;-19
2023/02/22 01:19:22;;;;;;;21.10;6.47;;;;;;;;;;1026994;28;20023;-17
2023/02/22 01:19:52;;;;;;;13.30;6.97;;;;;;;;;;1031789;28;20575;-17
2023/02/22 01:20:24;;;;;;;41.40;8.82;;;;;;;;;;1031374;28;20034;-17
2023/02/22 01:20:55;;;;;;;16.33;6.80;;;;;;;;;;1030434;28;20111;-18
2023/02/22 01:21:25;;;;;;;29.92;8.63;;;;;;;;;;1036562;28;20025;-16
2023/02/22 01:21:56;;;;;;;28.17;8.68;;;;;;;;;;1035362;28;20036;-16
2023/02/22 01:22:26;;;;;;;27.23;9.02;;;;;;;;;;1035218;28;20436;-18
2023/02/22 01:22:58;;;;;;;41.80;8.93;;;;;;;;;;1037413;28;20030;-16
2023/02/22 01:23:29;;;;;;;32.80;7.63;;;;;;;;;;1037376;28;20496;-16
2023/02/22 01:24:00;;;;;;;24.10;7.03;;;;;;;;;;1032732;28;20069;-18
2023/02/22 01:24:31;;;;;;;25.42;7.25;;;;;;;;;;1030379;28;20057;-17
2023/02/22 01:25:02;;;;;;;19.88;6.78;;;;;;;;;;1026473;28;20027;-19
2023/02/22 01:25:33;;;;;;;18.30;8.40;;;;;;;;;;1030308;28;20033;-15
2023/02/22 01:26:04;;;;;;;35.03;9.43;;;;;;;;;;1030923;28;20622;-17
2023/02/22 01:26:35;;;;;;;30.80;8.65;;;;;;;;;;1031774;28;20110;-16
2023/02/22 01:27:05;;;;;;;16.88;7.43;;;;;;;;;;1036329;28;20053;-19
2023/02/22 01:27:37;;;;;;;33.50;10.63;;;;;;;;;;1034980;28;20389;-18
2023/02/22 01:28:07;;;;;;;30.52;8.18;;;;;;;;;;1038647;28;20079;-16
2023/02/22 01:28:38;;;;;;;35.25;8.20;;;;;;;;;;1036772;28;20025;-16
2023/02/22 01:29:16;;;;;;;15.90;5.90;;;;;;;;;;1030535;28;20062;-16
2023/02/22 01:29:49;;;;;;;27.60;8.70;;;;;;;;;;1033210;28;20112;-17
2023/02/22 01:30:20;;;;;;;32.85;9.45;;;;;;;;;;1030215;28;20029;-16
2023/02/22 01:30:51;;;;;;;32.10;8.50;;;;;;;;;;1032630;28;20022;-16
2023/02/22 01:31:22;;;;;;;37.58;13.07;;;;;;;;;;1032772;28;20046;-20
2023/02/22 01:31:54;;;;;;;36.13;12.82;;;;;;;;;;1034298;28;21154;-17
2023/02/22 01:32:25;;;;;;;47.25;18.65;;;;;;;;;;1034630;28;20030;-17
2023/02/22 01:32:56;;;;;;;46.45;17.38;;;;;;;;;;1032999;28;20033;-18
2023/02/22 01:33:26;;;;;;;63.38;15.73;;;;;;;;;;1033696;28;20140;-16
2023/02/22 01:33:57;;;;;;;44.47;13.93;;;;;;;;;;1035303;28;20206;-16
2023/02/22 01:34:29;;;;;;;34.40;16.83;;;;;;;;;;1035694;28;20044;-16
2023/02/22 01:34:59;;;;;;;43.67;14.82;;;;;;;;;;1030608;28;20078;-17
2023/02/22 01:35:31;;;;;;;46.85;17.20;;;;;;;;;;1031228;28;21019;-15
2023/02/22 01:36:02;;;;;;;42.45;16.33;;;;;;;;;;1030308;28;20478;-20
2023/02/22 01:36:33;;;;;;;46.25;15.98;;;;;;;;;;1029836;28;20089;-17
2023/02/22 01:37:05;;;;;;;46.20;13.95;;;;;;;;;;1029525;28;21514;-18
2023/02/22 01:37:36;;;;;;;51.70;18.15;;;;;;;;;;1031097;28;20062;-18
2023/02/22 01:38:07;;;;;;;59.88;18.35;;;;;;;;;;1036998;28;20025;-17
2023/02/22 01:38:39;;;;;;;38.55;16.85;;;;;;;;;;1034495;28;20029;-17
2023/02/22 01:39:11;;;;;;;29.02;14.95;;;;;;;;;;1029085;28;20454;-17
2023/02/22 01:39:41;;;;;;;41.08;16.48;;;;;;;;;;1029573;28;20122;-16
2023/02/22 01:40:20;;;;;;;49.60;14.52;;;;;;;;;;1029330;28;20037;-18
2023/02/22 01:40:51;;;;;;;70.43;15.48;;;;;;;;;;1031127;28;20068;-14
2023/02/22 01:41:21;;;;;;;64.32;16.20;;;;;;;;;;1035391;28;20558;-15
2023/02/22 01:41:52;;;;;;;62.63;18.98;;;;;;;;;;1035247;28;20065;-16
2023/02/22 01:42:23;;;;;;;32.55;15.90;;;;;;;;;;1036376;28;20025;-18
2023/02/22 01:42:56;;;;;;;33.03;15.43;;;;;;;;;;1036186;28;20469;-15
2023/02/22 01:43:29;;;;;;;49.92;17.50;;;;;;;;;;1034227;28;20030;-16
2023/02/22 01:44:21;;;;;;;39.88;15.65;;;;;;;;;;1034067;28;20508;-14
2023/02/22 01:45:10;;;;;;;42.67;14.65;;;;;;;;;;1023077;28;20372;-15
2023/02/22 01:45:45;;;;;;;17.02;10.40;;;;;;;;;;1033478;28;20461;-18
2023/02/22 01:46:22;;;;;;;28.50;11.18;;;;;;;;;;1029752;28;20030;-17
2023/02/22 01:46:54;;;;;;;30.77;11.05;;;;;;;;;;1029640;28;20029;-15
2023/02/22 01:47:24;;;;;;;33.78;12.63;;;;;;;;;;1029321;28;20037;-16
2023/02/22 01:47:57;;;;;;;29.95;10.93;;;;;;;;;;1029943;28;20060;-18
2023/02/22 01:48:28;;;;;;;36.30;11.00;;;;;;;;;;1030631;28;20033;-19
2023/02/22 01:49:09;;;;;;;39.05;10.15;;;;;;;;;;1029711;28;20038;-17
2023/02/22 01:49:45;;;;;;;32.78;9.57;;;;;;;;;;1030359;28;20429;-17
2023/02/22 01:50:16;;;;;;;18.38;7.32;;;;;;;;;;1029481;28;20038;-16
2023/02/22 01:50:51;;;;;;;16.42;6.00;;;;;;;;;;1032009;28;20089;-18
2023/02/22 01:51:27;;;;;;;18.05;6.70;;;;;;;;;;1034074;28;20112;-16
2023/02/22 01:52:00;;;;;;;14.32;6.85;;;;;;;;;;1034228;28;20120;-17
2023/02/22 01:52:31;;;;;;;12.43;6.38;;;;;;;;;;1034059;28;20117;-17
2023/02/22 01:53:03;;;;;;;20.08;6.40;;;;;;;;;;1034768;28;20027;-17
2023/02/22 01:53:35;;;;;;;23.88;7.80;;;;;;;;;;1035409;28;20033;-15
2023/02/22 01:54:33;;;;;;;26.48;8.63;;;;;;;;;;1037536;28;20029;-15
2023/02/22 01:55:03;;;;;;;14.70;5.85;;;;;;;;;;1029996;28;20044;-16
2023/02/22 01:55:34;;;;;;;11.10;4.72;;;;;;;;;;1035202;28;20146;-17
2023/02/22 01:56:05;;;;;;;12.70;4.68;;;;;;;;;;1035698;28;20437;-16
2023/02/22 01:56:37;;;;;;;13.98;5.30;;;;;;;;;;1035062;28;20030;-18
2023/02/22 01:57:11;;;;;;;12.73;6.18;;;;;;;;;;1029403;28;20026;-16
2023/02/22 01:57:42;;;;;;;13.57;3.53;;;;;;;;;;1027842;28;20057;-16
2023/02/22 01:58:14;;;;;;;10.20;5.53;;;;;;;;;;1029858;28;20034;-16
2023/02/22 01:58:47;;;;;;;20.52;4.07;;;;;;;;;;1026630;28;20034;-16
2023/02/22 01:59:20;;;;;;;13.38;4.60;;;;;;;;;;1030721;28;20026;-19
2023/02/22 01:59:54;;;;;;;15.02;4.20;;;;;;;;;;1026682;28;20018;-13
2023/02/22 02:00:26;;;;;;;10.25;4.20;;;;;;;;;;1026267;28;20027;-16
2023/02/22 02:00:57;;;;;;;7.35;4.15;;;;;;;;;;1028967;28;20061;-17
2023/02/22 02:01:28;;;;;;;12.38;3.60;;;;;;;;;;1028114;28;20659;-15
2023/02/22 02:01:59;;;;;;;11.63;4.53;;;;;;;;;;1034069;28;20301;-15
2023/02/22 02:02:30;;;;;;;19.92;4.60;;;;;;;;;;1032722;28;20034;-15
2023/02/22 02:03:06;;;;;;;7.10;2.40;;;;;;;;;;1031024;28;20489;-15
2023/02/22 02:03:38;;;;;;;13.00;4.47;;;;;;;;;;1029560;28;20110;-16
2023/02/22 02:04:11;;;;;;;12.60;4.38;;;;;;;;;;1025650;28;20071;-15
2023/02/22 02:04:41;;;;;;;12.77;6.07;;;;;;;;;;1024592;28;20117;-14
2023/02/22 02:05:13;;;;;;;14.10;6.78;;;;;;;;;;1029058;28;20131;-17
2023/02/22 02:05:44;;;;;;;16.38;6.03;;;;;;;;;;1027553;28;20426;-15
2023/02/22 02:06:15;;;;;;;5.03;3.42;;;;;;;;;;1035060;28;20500;-15
2023/02/22 02:06:46;;;;;;;17.45;6.25;;;;;;;;;;1029510;28;20173;-17
2023/02/22 02:07:19;;;;;;;28.25;5.97;;;;;;;;;;1026829;28;20022;-15
2023/02/22 02:07:51;;;;;;;9.73;4.03;;;;;;;;;;1029668;28;20611;-17
2023/02/22 02:08:41;;;;;;;8.48;3.40;;;;;;;;;;1029538;28;20030;-16
2023/02/22 02:09:31;;;;;;;9.18;3.28;;;;;;;;;;1028561;28;20092;-15
2023/02/22 02:10:13;;;;;;;10.40;4.20;;;;;;;;;;1030748;28;20037;-16
2023/02/22 02:10:44;;;;;;;7.22;4.40;;;;;;;;;;1026484;28;20030;-13
2023/02/22 02:11:15;;;;;;;8.52;5.00;;;;;;;;;;1030210;28;20497;-16
2023/02/22 02:11:47;;;;;;;13.75;5.28;;;;;;;;;;1024626;28;20589;-18
2023/02/22 02:12:22;;;;;;;7.68;3.80;;;;;;;;;;1025680;28;20039;-16
2023/02/22 02:12:55;;;;;;;8.15;4.13;;;;;;;;;;1024805;28;20113;-19
2023/02/22 02:13:26;;;;;;;4.00;1.92;;;;;;;;;;1025040;28;20034;-15
2023/02/22 02:13:57;;;;;;;6.93;3.88;;;;;;;;;;1025571;28;20059;-16
2023/02/22 02:14:30;;;;;;;5.88;3.22;;;;;;;;;;1030258;28;20033;-16
2023/02/22 02:15:30;;;;;;;4.18;2.50;;;;;;;;;;1034985;28;20018;-16
2023/02/22 02:16:01;;;;;;;5.13;2.33;;;;;;;;;;1022348;28;20035;-15
2023/02/22 02:16:42;;;;;;;5.15;2.33;;;;;;;;;;1029767;28;20030;-16
2023/02/22 02:17:15;;;;;;;4.28;2.63;;;;;;;;;;1027220;28;20079;-16
2023/02/22 02:17:47;;;;;;;5.50;1.65;;;;;;;;;;1026791;28;20141;-13
2023/02/22 02:18:18;;;;;;;13.25;4.05;;;;;;;;;;1030559;28;20033;-15
2023/02/22 02:18:49;;;;;;;7.05;2.60;;;;;;;;;;1024776;28;20058;-16
2023/02/22 02:19:40;;;;;;;6.10;2.92;;;;;;;;;;1029124;28;20022;-16
2023/02/22 02:20:18;;;;;;;9.32;2.42;;;;;;;;;;1017360;28;20586;-15
2023/02/22 02:20:51;;;;;;;7.07;1.85;;;;;;;;;;1029470;28;20019;-17
2023/02/22 02:21:41;;;;;;;6.50;2.47;;;;;;;;;;1029201;28;20879;-16
2023/02/22 02:22:24;;;;;;;21.88;2.30;;;;;;;;;;1027612;28;20218;-15
2023/02/22 02:23:08;;;;;;;17.90;2.60;;;;;;;;;;1033401;28;20030;-16
2023/02/22 02:23:57;;;;;;;2.55;1.55;;;;;;;;;;1030539;28;20126;-17
2023/02/22 02:24:34;;;;;;;12.82;3.20;;;;;;;;;;1029534;28;20027;-14
2023/02/22 02:25:21;;;;;;;11.75;4.13;;;;;;;;;;1025805;28;20253;-16
2023/02/22 02:25:54;;;;;;;7.13;3.35;;;;;;;;;;1030576;28;20065;-17
2023/02/22 02:26:34;;;;;;;7.25;3.72;;;;;;;;;;1029275;28;20540;-17
2023/02/22 02:27:13;;;;;;;9.55;4.15;;;;;;;;;;1030894;28;20029;-16
2023/02/22 02:27:53;;;;;;;5.38;3.00;;;;;;;;;;1031835;28;20155;-17
2023/02/22 02:28:41;;;;;;;6.32;2.75;;;;;;;;;;1033910;28;20040;-14
2023/02/22 02:29:23;;;;;;;10.68;4.72;;;;;;;;;;1032055;28;20038;-16
2023/02/22 02:29:57;;;;;;;6.47;3.67;;;;;;;;;;1035012;28;20116;-16
2023/02/22 02:30:28;;;;;;;7.75;3.25;;;;;;;;;;1034588;28;20021;-17
2023/02/22 02:31:17;;;;;;;8.43;4.85;;;;;;;;;;959675;28;2078080;-17
2023/02/22 02:32:06;;;;;;;6.85;3.35;;;;;;;;;;1030723;28;20042;-17
2023/02/22 02:32:47;;;;;;;6.07;3.90;;;;;;;;;;1030519;28;20472;-13
2023/02/22 02:33:20;;;;;;;38.78;4.38;;;;;;;;;;1031711;28;20023;-17
2023/02/22 02:33:58;;;;;;;3.97;2.15;;;;;;;;;;1031679;28;20026;-17
2023/02/22 02:34:38;;;;;;;7.97;1.92;;;;;;;;;;1034819;28;20380;-14
2023/02/22 02:35:10;;;;;;;;;;;;;;;;;;1035619;28;20041;-15
2023/02/22 02:35:53;;;;;;;4.45;2.97;;;;;;;;;;1029066;28;20054;-18
2023/02/22 02:36:33;;;;;;;9.07;3.10;;;;;;;;;;1032500;28;20470;-18
2023/02/22 02:37:15;;;;;;;3.95;2.45;;;;;;;;;;1027408;28;20511;-16
2023/02/22 02:37:48;;;;;;;4.38;2.78;;;;;;;;;;1029880;28;20490;-17
2023/02/22 02:38:18;;;;;;;6.35;3.42;;;;;;;;;;1030730;28;20093;-17
2023/02/22 02:38:52;;;;;;;18.08;2.75;;;;;;;;;;1033180;28;20125;-17
2023/02/22 02:39:38;;;;;;;8.25;5.18;;;;;;;;;;1035805;28;20053;-16
2023/02/22 02:40:11;;;;;;;8.75;3.70;;;;;;;;;;1035882;28;20464;-16
2023/02/22 02:40:49;;;;;;;15.80;5.38;;;;;;;;;;1034814;28;20505;-17
2023/02/22 02:41:23;;;;;;;6.82;2.78;;;;;;;;;;1034830;28;20044;-16
2023/02/22 02:41:55;;;;;;;7.18;3.33;;;;;;;;;;1033705;28;20113;-17
2023/02/22 02:42:30;;;;;;;5.65;3.45;;;;;;;;;;1036982;28;20052;-15
2023/02/22 02:43:07;;;;;;;9.75;2.78;;;;;;;;;;1037629;28;20516;-14
2023/02/22 02:43:53;;;;;;;11.98;2.63;;;;;;;;;;1035380;28;20026;-16
2023/02/22 02:44:27;;;;;;;11.77;4.55;;;;;;;;;;1035181;28;20034;-17
2023/02/22 02:45:04;;;;;;;7.45;3.88;;;;;;;;;;1033123;28;20477;-15
2023/02/22 02:45:42;;;;;;;16.42;4.45;;;;;;;;;;1034536;28;20052;-16
2023/02/22 02:46:31;;;;;;;7.22;4.10;;;;;;;;;;1034395;28;20841;-17
2023/02/22 02:47:06;;;;;;;26.52;4.30;;;;;;;;;;1033656;28;20076;-17
2023/02/22 02:47:43;;;;;;;10.95;2.60;;;;;;;;;;1035030;28;20123;-16
2023/02/22 02:48:17;;;;;;;8.45;3.20;;;;;;;;;;1036638;28;20072;-18
2023/02/22 02:48:55;;;;;;;4.05;2.83;;;;;;;;;;1032428;28;20117;-16
2023/02/22 02:49:27;;;;;;;;;;;;;;;;;;1031292;28;20515;-16
2023/02/22 02:50:05;;;;;;;28.67;3.78;;;;;;;;;;1032647;28;20480;-17
2023/02/22 02:50:43;;;;;;;10.80;4.78;;;;;;;;;;1030206;28;20109;-16
2023/02/22 02:51:14;;;;;;;11.23;3.45;;;;;;;;;;1031968;28;20505;-17
2023/02/22 02:51:49;;;;;;;8.63;5.72;;;;;;;;;;1026507;28;20597;-16
2023/02/22 02:52:23;;;;;;;10.25;4.05;;;;;;;;;;1022433;28;20127;-18
2023/02/22 02:52:57;;;;;;;6.43;3.67;;;;;;;;;;1025807;28;20387;-17
2023/02/22 02:53:33;;;;;;;17.70;5.53;;;;;;;;;;1020092;28;20199;-18
2023/02/22 02:54:06;;;;;;;17.33;3.83;;;;;;;;;;1023503;28;20106;-16
2023/02/22 02:54:39;;;;;;;13.10;4.93;;;;;;;;;;1030104;28;20096;-17
2023/02/22 02:55:13;;;;;;;10.95;3.80;;;;;;;;;;1027696;28;20026;-16
2023/02/22 02:55:46;;;;;;;17.92;4.80;;;;;;;;;;1023249;28;20066;-17
2023/02/22 02:56:18;;;;;;;8.93;5.20;;;;;;;;;;1020331;29;20023;-16
2023/02/22 02:56:56;;;;;;;5.00;2.78;;;;;;;;;;1016690;29;20042;-18
2023/02/22 02:57:32;;;;;;;15.00;3.90;;;;;;;;;;1019397;28;20058;-17
2023/02/22 02:58:14;;;;;;;14.35;4.07;;;;;;;;;;1024966;28;20046;-18
2023/02/22 02:59:04;;;;;;;9.15;3.75;;;;;;;;;;1025192;28;20027;-18
2023/02/22 02:59:37;;;;;;;11.65;4.20;;;;;;;;;;1018554;28;20541;-16
2023/02/22 03:00:21;;;;;;;7.97;3.00;;;;;;;;;;1021205;29;20038;-15
2023/02/22 03:00:54;;;;;;;15.05;4.22;;;;;;;;;;1026317;28;20026;-17
2023/02/22 03:01:35;;;;;;;8.40;4.70;;;;;;;;;;1025554;28;20105;-18
2023/02/22 03:02:25;;;;;;;9.98;3.45;;;;;;;;;;1027207;28;20123;-18
2023/02/22 03:03:17;;;;;;;11.40;4.88;;;;;;;;;;1033414;28;20066;-15
2023/02/22 03:04:01;;;;;;;8.27;3.58;;;;;;;;;;1030229;28;20030;-19
2023/02/22 03:05:01;;;;;;;11.25;5.43;;;;;;;;;;1027219;28;20018;-16
2023/02/22 03:05:41;;;;;;;9.23;4.47;;;;;;;;;;1028975;28;20038;-19
2023/02/22 03:06:25;;;;;;;7.50;3.83;;;;;;;;;;1027266;28;20102;-17
2023/02/22 03:07:23;;;;;;;7.88;2.65;;;;;;;;;;1022443;28;20030;-16
2023/02/22 03:08:06;;;;;;;18.77;4.72;;;;;;;;;;1026365;28;20158;-17
2023/02/22 03:08:39;;;;;;;9.00;2.83;;;;;;;;;;1031856;28;20041;-17
2023/02/22 03:09:21;;;;;;;22.60;3.67;;;;;;;;;;1026319;28;20039;-17
2023/02/22 03:09:57;;;;;;;17.10;5.03;;;;;;;;;;1028464;28;20018;-16
2023/02/22 03:10:42;;;;;;;6.53;2.97;;;;;;;;;;1027380;28;20026;-17
2023/02/22 03:11:18;;;;;;;20.33;4.90;;;;;;;;;;1020187;28;20042;-18
2023/02/22 03:12:00;;;;;;;8.30;4.28;;;;;;;;;;1021643;28;20023;-16
2023/02/22 03:12:40;;;;;;;4.00;2.83;;;;;;;;;;1025116;28;20189;-19
2023/02/22 03:13:30;;;;;;;11.43;6.82;;;;;;;;;;1030145;28;20113;-19
2023/02/22 03:14:01;;;;;;;;;;;;;;;;;;1033691;28;20144;-16
2023/02/22 03:14:35;;;;;;;10.23;5.00;;;;;;;;;;1029981;28;19918;-18
2023/02/22 03:15:32;;;;;;;10.40;4.88;;;;;;;;;;1029177;28;20533;-19
2023/02/22 03:16:23;;;;;;;10.70;4.65;;;;;;;;;;1022909;28;20462;-18
2023/02/22 03:17:05;;;;;;;7.68;4.25;;;;;;;;;;1027446;28;20037;-19
2023/02/22 03:17:47;;;;;;;8.90;5.63;;;;;;;;;;1025590;28;20089;-18
2023/02/22 03:18:51;;;;;;;7.90;3.97;;;;;;;;;;1027747;28;20422;-16
2023/02/22 03:19:45;;;;;;;15.05;5.47;;;;;;;;;;1020392;28;20065;-18
2023/02/22 03:20:22;;;;;;;31.25;7.78;;;;;;;;;;1029728;28;20034;-18
2023/02/22 03:21:09;;;;;;;5.55;3.63;;;;;;;;;;1030659;28;20774;-15
2023/02/22 03:21:45;;;;;;;17.00;4.50;;;;;;;;;;1031755;28;20080;-18
2023/02/22 03:22:31;;;;;;;9.57;4.63;;;;;;;;;;1029145;28;20460;-16
2023/02/22 03:23:08;;;;;;;16.77;7.78;;;;;;;;;;1023821;28;20030;-16
2023/02/22 03:23:45;;;;;;;12.57;5.55;;;;;;;;;;1027486;28;20070;-19